Time;durP1;ratioP1;P1;durP2;ratioP2;P2;SDS_P1;SDS_P2;PMS_P1;PMS_P2;Temp;Humidity;BMP_temperature;BMP_pressure;BME280_temperature;BME280_humidity;BME280_pressure;Samples;Min_cycle;Max_cycle;Signal;HPM_P1;HPM_P2
2022/10/27 00:01:37;;;;;;;;;3.50;3.00;;;;;13.32;76.40;100544.09;5097463;28;8826;-62
2022/10/27 00:04:05;;;;;;;;;5.50;4.00;;;;;13.29;76.11;100541.66;5096991;28;8822;-60
2022/10/27 00:06:32;;;;;;;;;3.75;3.25;;;;;13.20;76.37;100545.09;5097259;28;8806;-60
2022/10/27 00:09:00;;;;;;;;;6.00;6.00;;;;;13.09;77.12;100547.75;5097624;28;8838;-60
2022/10/27 00:11:28;;;;;;;;;4.00;3.50;;;;;12.95;76.88;100554.22;5097806;28;8822;-59
2022/10/27 00:13:55;;;;;;;;;4.00;4.00;;;;;12.84;77.19;100561.34;5097474;28;8821;-60
2022/10/27 00:16:23;;;;;;;;;5.00;5.00;;;;;12.73;77.56;100556.84;5096951;28;8814;-61
2022/10/27 00:18:51;;;;;;;;;4.00;4.00;;;;;12.66;78.16;100560.97;5077347;28;8840;-60
2022/10/27 00:21:19;;;;;;;;;4.00;4.00;;;;;12.61;78.00;100565.81;5077090;28;8836;-62
2022/10/27 00:23:46;;;;;;;;;4.00;3.00;;;;;12.57;77.54;100561.69;5076797;28;8828;-61
2022/10/27 00:26:14;;;;;;;;;5.00;4.00;;;;;12.57;78.08;100566.19;5090656;28;8826;-62
2022/10/27 00:28:42;;;;;;;;;1.00;1.00;;;;;12.56;77.90;100559.13;5096170;28;8872;-60
2022/10/27 00:31:10;;;;;;;;;4.00;4.00;;;;;12.52;77.83;100568.34;5096291;28;8834;-61
2022/10/27 00:33:37;;;;;;;;;3.00;3.00;;;;;12.47;77.96;100557.19;5097144;28;9527;-61
2022/10/27 00:36:05;;;;;;;;;4.25;3.50;;;;;12.42;77.56;100564.69;5096508;28;9460;-61
2022/10/27 00:38:32;;;;;;;;;3.25;3.25;;;;;12.35;77.98;100575.00;5096642;28;8818;-60
2022/10/27 00:41:00;;;;;;;;;3.75;3.75;;;;;12.32;78.03;100575.22;5096550;28;8841;-60
2022/10/27 00:43:28;;;;;;;;;4.00;4.00;;;;;12.29;78.30;100578.16;5096336;28;8897;-61
2022/10/27 00:45:55;;;;;;;;;2.00;2.00;;;;;12.27;78.14;100576.56;5095984;28;8830;-62
2022/10/27 00:48:23;;;;;;;;;3.00;3.00;;;;;12.25;78.77;100581.16;5096458;28;8903;-60
2022/10/27 00:50:50;;;;;;;;;4.00;4.00;;;;;12.22;78.19;100584.06;5096307;28;8837;-59
2022/10/27 00:53:18;;;;;;;;;4.00;3.75;;;;;12.19;78.60;100584.31;5096396;28;8834;-61
2022/10/27 00:55:46;;;;;;;;;3.75;3.75;;;;;12.17;78.56;100581.75;5095647;28;8821;-61
2022/10/27 00:58:14;;;;;;;;;4.50;4.00;;;;;12.15;78.63;100588.19;5095827;28;8842;-60
2022/10/27 01:00:41;;;;;;;;;3.50;3.50;;;;;12.15;78.40;100582.84;5095412;28;8829;-60
2022/10/27 01:03:09;;;;;;;;;3.50;3.25;;;;;12.12;78.80;100586.59;5095493;28;8829;-60
2022/10/27 01:05:37;;;;;;;;;3.75;3.50;;;;;12.11;78.41;100582.22;5095496;28;8881;-61
2022/10/27 01:08:05;;;;;;;;;3.25;2.50;;;;;12.09;78.60;100588.66;5095380;28;8936;-61
2022/10/27 01:10:33;;;;;;;;;2.00;2.00;;;;;12.07;78.19;100588.75;5095738;28;8911;-60
2022/10/27 01:13:00;;;;;;;;;5.50;5.50;;;;;12.07;78.71;100594.09;5095699;28;8917;-60
2022/10/27 01:15:28;;;;;;;;;3.00;3.00;;;;;12.06;78.14;100591.53;5095493;28;9499;-60
2022/10/27 01:17:56;;;;;;;;;3.75;3.75;;;;;12.04;78.73;100582.78;5095581;28;8888;-60
2022/10/27 01:20:24;;;;;;;;;3.50;3.25;;;;;12.05;78.43;100587.16;5095125;28;8834;-60
2022/10/27 01:22:51;;;;;;;;;3.75;3.75;;;;;12.04;78.90;100586.31;5095921;28;8822;-59
2022/10/27 01:25:20;;;;;;;;;4.00;3.50;;;;;12.05;78.38;100587.16;5094730;28;8952;-62
2022/10/27 01:27:47;;;;;;;;;3.00;3.00;;;;;12.04;78.83;100597.00;5095842;28;9521;-61
2022/10/27 01:30:15;;;;;;;;;4.00;4.00;;;;;12.05;78.02;100592.50;5095787;28;8926;-60
2022/10/27 01:32:43;;;;;;;;;3.75;3.00;;;;;12.03;78.22;100600.66;5095256;28;8888;-60
2022/10/27 01:35:11;;;;;;;;;3.75;3.75;;;;;12.01;78.73;100597.22;5095495;28;8837;-59
2022/10/27 01:37:39;;;;;;;;;3.75;3.75;;;;;12.02;78.32;100595.41;5096093;28;8826;-59
2022/10/27 01:40:06;;;;;;;;;3.00;3.00;;;;;12.03;78.64;100602.44;5095954;28;9572;-59
2022/10/27 01:42:34;;;;;;;;;3.00;3.00;;;;;12.03;78.28;100597.97;5096387;28;8826;-61
2022/10/27 01:45:02;;;;;;;;;3.75;3.25;;;;;12.05;78.85;100603.19;5095772;28;8798;-59
2022/10/27 01:47:30;;;;;;;;;3.75;3.50;;;;;12.08;78.83;100606.47;5095998;28;8822;-59
2022/10/27 01:49:57;;;;;;;;;2.50;2.50;;;;;12.10;78.61;100606.38;5095686;28;8810;-60
2022/10/27 01:52:25;;;;;;;;;2.00;2.00;;;;;12.12;78.11;100607.97;5096024;28;9244;-60
2022/10/27 01:54:54;;;;;;;;;4.00;4.00;;;;;12.14;78.12;100605.16;5095620;28;8826;-62
2022/10/27 01:57:22;;;;;;;;;3.00;3.00;;;;;12.12;78.46;100605.28;5096405;28;8853;-61
2022/10/27 01:59:49;;;;;;;;;3.00;3.00;;;;;12.12;78.22;100599.09;5095903;28;8818;-61
2022/10/27 02:02:17;;;;;;;;;2.00;2.00;;;;;12.11;78.51;100594.72;5095892;28;8826;-60
2022/10/27 02:04:44;;;;;;;;;4.00;3.25;;;;;12.09;78.38;100594.00;5095591;28;8834;-62
2022/10/27 02:07:12;;;;;;;;;1.00;1.00;;;;;12.08;78.73;100592.28;5096166;28;8944;-61
2022/10/27 02:09:40;;;;;;;;;3.00;3.00;;;;;12.06;78.19;100594.19;5096262;28;8822;-60
2022/10/27 02:12:08;;;;;;;;;3.00;3.00;;;;;12.04;78.52;100594.34;5096005;28;8915;-60
2022/10/27 02:14:37;;;;;;;;;1.00;1.00;;;;;12.03;78.62;100600.66;5095280;28;8846;-61
2022/10/27 02:17:05;;;;;;;;;2.50;1.00;;;;;12.01;78.66;100597.22;5095679;28;8897;-62
2022/10/27 02:19:32;;;;;;;;;3.25;3.25;;;;;12.00;78.63;100594.69;5095242;28;8887;-62
2022/10/27 02:22:00;;;;;;;;;1.50;1.50;;;;;11.98;78.99;100592.13;5095417;28;8833;-62
2022/10/27 02:24:28;;;;;;;;;3.00;1.00;;;;;11.97;78.35;100600.22;5095906;28;8899;-62
2022/10/27 02:26:55;;;;;;;;;1.00;1.00;;;;;11.93;78.53;100596.94;5094974;28;8939;-62
2022/10/27 02:29:23;;;;;;;;;3.75;3.75;;;;;11.92;78.97;100602.41;5095576;28;8818;-62
2022/10/27 02:31:52;;;;;;;;;1.00;1.00;;;;;11.91;79.14;100598.00;5095839;28;8909;-62
2022/10/27 02:34:20;;;;;;;;;3.00;3.00;;;;;11.92;78.91;100596.22;5098892;28;8899;-62
2022/10/27 02:36:47;;;;;;;;;4.00;3.75;;;;;11.93;78.62;100600.56;5099289;28;8875;-61
2022/10/27 02:39:15;;;;;;;;;3.00;3.00;;;;;11.95;78.35;100604.84;5099832;28;9735;-62
2022/10/27 02:41:42;;;;;;;;;4.00;3.25;;;;;11.98;79.07;100601.09;5099707;28;8822;-59
2022/10/27 02:44:10;;;;;;;;;2.00;2.00;;;;;11.97;78.66;100605.56;5099318;28;8872;-59
2022/10/27 02:46:38;;;;;;;;;3.00;3.00;;;;;11.96;78.67;100609.22;5099026;28;8810;-60
2022/10/27 02:49:05;;;;;;;;;3.50;3.25;;;;;11.93;78.92;100604.13;5099440;28;8907;-61
2022/10/27 02:51:33;;;;;;;;;3.25;3.25;;;;;11.90;79.02;100604.31;5099364;28;8842;-59
2022/10/27 02:54:01;;;;;;;;;3.25;3.00;;;;;11.88;78.72;100606.25;5098683;28;8842;-60
2022/10/27 02:56:28;;;;;;;;;3.00;3.00;;;;;11.85;78.76;100601.16;5098174;28;8863;-60
2022/10/27 02:58:56;;;;;;;;;2.00;2.00;;;;;11.82;79.10;100608.53;5098683;28;8942;-60
2022/10/27 03:01:24;;;;;;;;;3.00;3.00;;;;;11.80;78.83;100605.97;5097534;28;8906;-61
2022/10/27 03:03:52;;;;;;;;;3.00;3.00;;;;;11.78;78.79;100607.91;5097953;28;8825;-59
2022/10/27 03:06:19;;;;;;;;;4.00;4.00;;;;;11.75;79.14;100602.78;5097134;28;8822;-59
2022/10/27 03:08:47;;;;;;;;;2.00;1.00;;;;;11.73;78.92;100604.72;5098775;28;9519;-60
2022/10/27 03:11:15;;;;;;;;;0.00;0.00;;;;;11.72;79.55;100610.16;5098351;28;8830;-59
2022/10/27 03:13:43;;;;;;;;;3.00;3.00;;;;;11.71;79.34;100608.47;5098197;28;8913;-60
2022/10/27 03:16:10;;;;;;;;;2.50;1.00;;;;;11.69;79.16;100600.56;5098353;28;8871;-60
2022/10/27 03:18:38;;;;;;;;;1.00;1.00;;;;;11.70;79.29;100602.31;5098369;28;8822;-60
2022/10/27 03:21:06;;;;;;;;;4.00;4.00;;;;;11.72;79.37;100603.03;5098343;28;8822;-60
2022/10/27 03:23:34;;;;;;;;;4.00;4.00;;;;;11.73;79.03;100596.72;5098325;28;9491;-59
2022/10/27 03:26:01;;;;;;;;;4.00;4.00;;;;;11.72;79.15;100597.69;5097486;28;8826;-59
2022/10/27 03:28:34;;;;;;;;;5.00;4.00;;;;;11.73;79.35;100595.84;5098295;28;8814;-60
2022/10/27 03:31:01;;;;;;;;;5.00;4.00;;;;;11.74;79.19;100601.09;5098670;28;9484;-60
2022/10/27 03:33:29;;;;;;;;;4.50;4.50;;;;;11.75;78.99;100599.28;5098388;28;8838;-59
2022/10/27 03:35:57;;;;;;;;;3.00;3.00;;;;;11.74;78.71;100603.75;5097988;28;8907;-59
2022/10/27 03:38:25;;;;;;;;;4.00;4.00;;;;;11.72;78.87;100600.34;5098278;28;8814;-59
2022/10/27 03:40:52;;;;;;;;;2.00;2.00;;;;;11.73;79.01;100598.53;5097930;28;8907;-61
2022/10/27 03:43:20;;;;;;;;;4.00;3.25;;;;;11.71;79.19;100593.31;5097974;28;8915;-60
2022/10/27 03:45:48;;;;;;;;;4.00;4.00;;;;;11.70;79.29;100590.75;5097775;28;8818;-60
2022/10/27 03:48:16;;;;;;;;;5.50;4.50;;;;;11.70;79.25;100588.09;5097973;28;8821;-60
2022/10/27 03:50:43;;;;;;;;;6.00;5.50;;;;;11.71;79.47;100590.66;5097856;28;8833;-60
2022/10/27 03:53:11;;;;;;;;;6.00;4.00;;;;;11.73;79.08;100586.06;5098136;28;8902;-60
2022/10/27 03:55:38;;;;;;;;;4.00;4.00;;;;;11.75;79.07;100580.63;5097609;28;8821;-61
2022/10/27 03:58:06;;;;;;;;;6.00;6.00;;;;;11.75;78.61;100584.13;5097672;28;8911;-59
2022/10/27 04:00:39;;;;;;;;;5.50;5.00;;;;;11.73;78.84;100583.38;5097717;28;8829;-60
2022/10/27 04:03:06;;;;;;;;;5.00;5.00;;;;;11.71;79.34;100587.13;5097557;28;8941;-60
2022/10/27 04:05:34;;;;;;;;;4.00;3.25;;;;;11.69;79.09;100587.22;5097384;28;8834;-60
2022/10/27 04:08:01;;;;;;;;;3.00;1.50;;;;;11.70;79.51;100580.97;5097300;28;8833;-59
2022/10/27 04:10:29;;;;;;;;;7.75;7.75;;;;;11.72;79.08;100578.16;5096726;28;8814;-60
2022/10/27 04:12:57;;;;;;;;;3.75;3.75;;;;;11.74;79.47;100582.41;5097646;28;8841;-60
2022/10/27 04:15:25;;;;;;;;;5.00;5.00;;;;;11.75;79.25;100589.44;5097127;28;9552;-59
2022/10/27 04:17:52;;;;;;;;;8.50;6.75;;;;;11.80;79.15;100589.09;5096865;28;8902;-59
2022/10/27 04:20:20;;;;;;;;;6.25;6.00;;;;;11.85;78.54;100590.50;5097240;28;8875;-60
2022/10/27 04:22:49;;;;;;;;;7.00;6.50;;;;;11.91;78.92;100583.84;5096704;28;8826;-60
2022/10/27 04:25:18;;;;;;;;;7.00;7.00;;;;;11.97;78.85;100586.06;5096399;28;8910;-58
2022/10/27 04:27:45;;;;;;;;;6.50;6.50;;;;;12.02;78.38;100587.41;5095760;28;8931;-59
2022/10/27 04:30:13;;;;;;;;;4.00;4.00;;;;;12.04;78.34;100581.00;5095935;28;8814;-59
2022/10/27 04:32:41;;;;;;;;;4.00;3.00;;;;;12.08;78.11;100578.94;5095854;28;8910;-59
2022/10/27 04:35:08;;;;;;;;;2.00;2.00;;;;;12.09;78.33;100580.63;5095512;28;8889;-59
2022/10/27 04:37:36;;;;;;;;;6.00;6.00;;;;;12.08;78.76;100585.13;5095849;28;8894;-59
2022/10/27 04:40:04;;;;;;;;;6.00;5.50;;;;;12.09;78.06;100580.63;5096588;28;8822;-59
2022/10/27 04:42:32;;;;;;;;;4.00;4.00;;;;;12.08;78.67;100577.09;5096619;28;8818;-60
2022/10/27 04:45:00;;;;;;;;;5.00;5.00;;;;;12.08;78.52;100571.75;5096054;28;8818;-59
2022/10/27 04:47:28;;;;;;;;;4.50;4.00;;;;;12.08;78.05;100566.41;5096237;28;8865;-59
2022/10/27 04:49:56;;;;;;;;;3.75;3.75;;;;;12.09;78.71;100567.28;5096201;28;8891;-59
2022/10/27 04:52:24;;;;;;;;;3.25;3.25;;;;;12.07;78.82;100575.41;5095403;28;8827;-59
2022/10/27 04:54:51;;;;;;;;;4.00;3.25;;;;;12.06;78.63;100570.16;5095317;28;8837;-59
2022/10/27 04:57:19;;;;;;;;;4.50;4.00;;;;;12.03;78.91;100573.09;5094775;28;8838;-59
2022/10/27 04:59:47;;;;;;;;;3.00;3.00;;;;;11.99;78.75;100566.25;5095382;28;8818;-59
2022/10/27 05:02:15;;;;;;;;;5.00;5.00;;;;;11.96;79.01;100571.84;5094921;28;8817;-59
2022/10/27 05:04:42;;;;;;;;;4.00;3.50;;;;;11.93;79.19;100572.09;5094657;28;8922;-61
2022/10/27 05:07:11;;;;;;;;;3.75;3.75;;;;;11.89;78.84;100567.94;5094143;28;8834;-59
2022/10/27 05:09:38;;;;;;;;;4.75;3.75;;;;;11.85;79.19;100563.81;5095371;28;9557;-60
2022/10/27 05:12:06;;;;;;;;;4.50;4.50;;;;;11.83;79.70;100559.53;5094407;28;8845;-60
2022/10/27 05:14:34;;;;;;;;;6.50;5.50;;;;;11.78;79.69;100562.56;5094788;28;9499;-62
2022/10/27 05:17:02;;;;;;;;;4.00;4.00;;;;;11.72;78.92;100559.47;5094138;28;9156;-62
2022/10/27 05:19:30;;;;;;;;;2.00;2.00;;;;;11.66;79.22;100560.78;5094630;28;8964;-59
2022/10/27 05:21:57;;;;;;;;;6.25;4.00;;;;;11.62;79.57;100556.66;5093726;28;8826;-59
2022/10/27 05:24:25;;;;;;;;;4.00;3.75;;;;;11.62;79.48;100564.66;5093911;28;9605;-62
2022/10/27 05:26:53;;;;;;;;;4.00;3.75;;;;;11.61;79.52;100562.94;5093950;28;8845;-61
2022/10/27 05:29:21;;;;;;;;;5.00;3.50;;;;;11.62;80.02;100567.34;5093335;28;8893;-59
2022/10/27 05:31:48;;;;;;;;;5.00;4.00;;;;;11.64;79.53;100567.19;5093429;28;8854;-60
2022/10/27 05:34:16;;;;;;;;;1.00;1.00;;;;;11.67;79.88;100559.00;5093305;28;8830;-61
2022/10/27 05:36:44;;;;;;;;;3.25;3.00;;;;;11.68;79.99;100556.19;5092843;28;8844;-61
2022/10/27 05:39:12;;;;;;;;;3.75;3.25;;;;;11.71;79.16;100555.09;5092406;28;8845;-60
2022/10/27 05:41:39;;;;;;;;;5.00;4.00;;;;;11.70;79.51;100556.94;5092713;28;8834;-59
2022/10/27 05:44:07;;;;;;;;;3.00;3.00;;;;;11.68;79.18;100556.19;5092881;28;8825;-60
2022/10/27 05:46:34;;;;;;;;;3.75;3.75;;;;;11.68;79.13;100556.19;5091695;28;8837;-60
2022/10/27 05:49:02;;;;;;;;;5.00;4.00;;;;;11.66;79.25;100552.78;5090976;28;9580;-60
2022/10/27 05:51:32;;;;;;;;;3.75;3.75;;;;;11.65;79.72;100551.09;5090747;28;8818;-60
2022/10/27 05:54:00;;;;;;;;;4.00;4.00;;;;;11.64;79.41;100553.84;5090559;28;8927;-61
2022/10/27 05:56:27;;;;;;;;;4.25;4.25;;;;;11.62;79.63;100563.81;5090043;28;8830;-60
2022/10/27 05:58:55;;;;;;;;;3.25;3.25;;;;;11.58;79.30;100560.50;5089624;28;8814;-59
2022/10/27 06:01:23;;;;;;;;;1.50;1.00;;;;;11.58;79.50;100562.31;5090773;28;8834;-60
2022/10/27 06:03:51;;;;;;;;;6.00;6.00;;;;;11.53;79.68;100557.28;5091269;28;8842;-61
2022/10/27 06:06:19;;;;;;;;;6.00;4.00;;;;;11.51;79.60;100559.22;5090421;28;9176;-60
2022/10/27 06:08:47;;;;;;;;;4.00;4.00;;;;;11.53;79.82;100562.63;5093656;28;8833;-60
2022/10/27 06:11:14;;;;;;;;;3.50;3.00;;;;;11.58;79.99;100559.63;5093602;28;8854;-60
2022/10/27 06:13:43;;;;;;;;;3.75;3.75;;;;;11.66;79.48;100565.25;5093754;28;8830;-60
2022/10/27 06:16:11;;;;;;;;;3.50;3.50;;;;;11.71;79.58;100568.44;5093775;28;8818;-62
2022/10/27 06:18:39;;;;;;;;;3.00;1.00;;;;;11.75;79.27;100576.09;5092938;28;9008;-61
2022/10/27 06:21:07;;;;;;;;;4.00;4.00;;;;;11.77;79.46;100570.66;5094039;28;8897;-60
2022/10/27 06:23:36;;;;;;;;;4.00;3.75;;;;;11.79;79.32;100569.59;5094368;28;9526;-60
2022/10/27 06:26:04;;;;;;;;;0.75;0.50;;;;;11.81;79.43;100567.66;5095544;28;8826;-62
2022/10/27 06:28:32;;;;;;;;;3.00;3.00;;;;;11.85;79.07;100569.16;5095004;28;8854;-61
2022/10/27 06:30:59;;;;;;;;;1.00;1.00;;;;;11.90;79.11;100566.97;5093881;28;8829;-61
2022/10/27 06:33:27;;;;;;;;;5.50;5.00;;;;;12.01;78.77;100580.38;5095800;28;8944;-61
2022/10/27 06:35:55;;;;;;;;;4.00;3.00;;;;;12.09;78.61;100576.13;5096154;28;8864;-62
2022/10/27 06:38:23;;;;;;;;;6.00;6.00;;;;;12.21;78.75;100579.69;5094757;28;8833;-61
2022/10/27 06:40:51;;;;;;;;;3.00;3.00;;;;;12.29;78.74;100578.16;5095998;28;8834;-62
2022/10/27 06:43:19;;;;;;;;;3.75;3.25;;;;;12.38;78.08;100576.59;5095958;28;8846;-61
2022/10/27 06:45:46;;;;;;;;;3.50;3.00;;;;;12.42;78.12;100578.91;5096614;28;8860;-62
2022/10/27 06:48:14;;;;;;;;;4.00;3.50;;;;;12.45;78.10;100585.84;5096077;28;8964;-60
2022/10/27 06:50:42;;;;;;;;;3.25;3.25;;;;;12.47;78.32;100587.41;5095499;28;8845;-60
2022/10/27 06:53:10;;;;;;;;;6.50;5.00;;;;;12.46;78.06;100585.72;5095667;28;8810;-62
2022/10/27 06:55:37;;;;;;;;;6.00;4.50;;;;;12.47;77.88;100595.41;5094794;28;8826;-60
2022/10/27 06:58:05;;;;;;;;;5.50;5.50;;;;;12.45;78.14;100591.19;5093936;28;8852;-60
2022/10/27 07:00:33;;;;;;;;;4.50;4.00;;;;;12.41;77.92;100589.72;5093004;28;8852;-60
2022/10/27 07:03:01;;;;;;;;;7.00;7.00;;;;;12.37;78.23;100591.75;5092640;28;8919;-62
2022/10/27 07:05:29;;;;;;;;;7.00;6.00;;;;;12.34;78.66;100592.00;5093490;28;8868;-62
2022/10/27 07:07:57;;;;;;;;;7.00;7.00;;;;;12.33;78.93;100590.31;5092492;28;8981;-60
2022/10/27 07:10:25;;;;;;;;;6.50;6.50;;;;;12.33;78.09;100595.66;5092803;28;8918;-60
2022/10/27 07:12:53;;;;;;;;;9.50;8.00;;;;;12.34;79.06;100599.16;5092993;28;8830;-60
2022/10/27 07:15:21;;;;;;;;;8.50;7.00;;;;;12.33;78.87;100598.31;5094117;28;8857;-62
2022/10/27 07:17:50;;;;;;;;;6.50;6.50;;;;;12.35;78.53;100595.50;5093960;28;8826;-62
2022/10/27 07:20:22;;;;;;;;;4.00;4.00;;;;;12.37;78.77;100598.91;5093191;28;8854;-61
2022/10/27 07:22:50;;;;;;;;;4.50;3.00;;;;;12.39;78.60;100592.50;5094385;28;8852;-62
2022/10/27 07:25:18;;;;;;;;;6.00;5.50;;;;;12.45;78.85;100602.72;5092335;28;8853;-59
2022/10/27 07:27:46;;;;;;;;;6.00;6.00;;;;;12.51;78.69;100596.91;5094231;28;8838;-59
2022/10/27 07:30:14;;;;;;;;;5.50;5.50;;;;;12.56;78.29;100601.88;5094259;28;8830;-60
2022/10/27 07:32:42;;;;;;;;;3.25;3.25;;;;;12.59;78.17;100599.84;5093764;28;8826;-60
2022/10/27 07:35:09;;;;;;;;;4.00;4.00;;;;;12.62;78.10;100594.25;5092304;28;9285;-62
2022/10/27 07:37:37;;;;;;;;;6.00;5.50;;;;;12.66;77.67;100597.53;5093045;28;8856;-62
2022/10/27 07:40:06;;;;;;;;;6.75;6.00;;;;;12.69;78.12;100590.13;5093528;28;8935;-62
2022/10/27 07:42:35;;;;;;;;;5.50;5.50;;;;;12.75;77.83;100595.00;5092685;28;8834;-60
2022/10/27 07:45:02;;;;;;;;;4.00;4.00;;;;;12.89;77.72;100591.22;5092847;28;8842;-63
2022/10/27 07:47:30;;;;;;;;;3.50;3.25;;;;;13.09;77.21;100593.22;5093507;28;8852;-61
2022/10/27 07:49:58;;;;;;;;;4.50;4.00;;;;;13.29;76.50;100589.81;5093964;28;9192;-60
2022/10/27 07:52:26;;;;;;;;;4.00;3.50;;;;;13.45;76.67;100587.59;5094068;28;8826;-61
2022/10/27 07:54:55;;;;;;;;;6.75;6.75;;;;;13.55;76.83;100573.34;5094396;28;8830;-62
2022/10/27 07:57:23;;;;;;;;;9.25;7.50;;;;;13.66;76.60;100577.81;5094566;28;8856;-60
2022/10/27 07:59:50;;;;;;;;;9.00;8.00;;;;;13.75;76.68;100571.72;5093601;28;8818;-61
2022/10/27 08:02:19;;;;;;;;;6.50;5.50;;;;;13.91;76.37;100572.13;5094034;28;8838;-60
2022/10/27 08:04:47;;;;;;;;;6.00;4.50;;;;;14.09;75.47;100559.88;5094460;28;8885;-60
2022/10/27 08:07:15;;;;;;;;;9.50;9.00;;;;;14.25;74.95;100560.31;5093553;28;8849;-62
2022/10/27 08:09:43;;;;;;;;;7.00;6.50;;;;;14.44;75.47;100565.81;5091891;28;8858;-60
2022/10/27 08:12:11;;;;;;;;;5.00;5.00;;;;;14.59;74.47;100557.31;5092582;28;8872;-60
2022/10/27 08:14:39;;;;;;;;;7.50;7.50;;;;;14.76;74.54;100551.34;5093470;28;8946;-61
2022/10/27 08:17:07;;;;;;;;;9.00;7.00;;;;;14.91;75.07;100547.31;5093761;28;8838;-60
2022/10/27 08:19:35;;;;;;;;;0.75;0.75;;;;;15.10;74.44;100539.31;5093229;28;8952;-61
2022/10/27 08:22:03;;;;;;;;;6.00;5.00;;;;;15.28;74.64;100547.56;5092078;28;8864;-60
2022/10/27 08:24:31;;;;;;;;;7.50;6.50;;;;;15.40;73.80;100536.63;5091887;28;8870;-60
2022/10/27 08:26:59;;;;;;;;;3.75;3.25;;;;;15.52;73.90;100542.72;5090854;28;8846;-61
2022/10/27 08:29:27;;;;;;;;;10.25;10.25;;;;;15.63;73.52;100532.69;5090192;28;8845;-61
2022/10/27 08:31:55;;;;;;;;;6.00;6.00;;;;;15.78;73.28;100530.47;5088549;28;8834;-61
2022/10/27 08:34:23;;;;;;;;;8.00;6.80;;;;;15.96;73.51;100529.63;5091967;28;8829;-62
2022/10/27 08:36:51;;;;;;;;;7.40;6.40;;;;;16.14;73.18;100529.78;5092795;28;8845;-61
2022/10/27 08:39:18;;;;;;;;;7.40;7.40;;;;;16.28;72.48;100536.41;5092369;28;9883;-60
2022/10/27 08:41:46;;;;;;;;;7.80;7.40;;;;;16.42;72.47;100524.38;5091969;28;8834;-60
2022/10/27 08:44:15;;;;;;;;;2.60;2.60;;;;;16.59;72.57;100529.84;5092977;28;8932;-60
2022/10/27 08:46:43;;;;;;;;;1.80;1.80;;;;;16.77;71.91;100529.91;5092712;28;8992;-60
2022/10/27 08:49:10;;;;;;;;;2.60;1.40;;;;;17.01;71.69;100533.78;5092082;28;8930;-61
2022/10/27 08:51:43;;;;;;;;;2.20;2.20;;;;;17.23;71.13;100528.03;5092164;28;8855;-61
2022/10/27 08:54:11;;;;;;;;;0.00;0.00;;;;;17.39;70.59;100536.31;5093304;28;8833;-61
2022/10/27 08:56:40;;;;;;;;;1.00;1.00;;;;;17.59;70.67;100534.34;5091190;28;8846;-61
2022/10/27 08:59:08;;;;;;;;;0.00;0.00;;;;;17.78;70.00;100535.06;5091537;28;9157;-62
2022/10/27 09:01:35;;;;;;;;;0.40;0.40;;;;;17.94;69.98;100531.69;5090527;28;8913;-63
2022/10/27 09:04:04;;;;;;;;;0.00;0.00;;;;;18.07;69.56;100532.97;5090543;28;8872;-63
2022/10/27 09:06:32;;;;;;;;;1.00;1.00;;;;;18.18;69.38;100534.59;5089600;28;8834;-60
2022/10/27 09:09:00;;;;;;;;;1.00;1.00;;;;;18.27;69.27;100539.91;5090013;28;8854;-61
2022/10/27 09:11:28;;;;;;;;;1.00;1.00;;;;;18.35;69.58;100542.69;5090282;28;8840;-61
2022/10/27 09:13:56;;;;;;;;;0.00;0.00;;;;;18.42;68.96;100532.13;5091032;28;8822;-61
2022/10/27 09:16:24;;;;;;;;;0.80;0.80;;;;;18.47;68.99;100536.06;5090985;28;8915;-61
2022/10/27 09:18:54;;;;;;;;;0.40;0.20;;;;;18.55;68.18;100527.16;5089687;28;8834;-61
2022/10/27 09:21:22;;;;;;;;;0.00;0.00;;;;;18.64;68.97;100529.75;5088813;28;8984;-63
2022/10/27 09:23:50;;;;;;;;;0.80;0.80;;;;;18.71;68.47;100527.25;5089147;28;8849;-60
2022/10/27 09:26:18;;;;;;;;;0.20;0.00;;;;;18.77;68.65;100522.09;5088011;28;8825;-63
2022/10/27 09:28:48;;;;;;;;;1.00;0.20;;;;;18.85;68.37;100523.97;5088903;28;8862;-61
2022/10/27 09:31:16;;;;;;;;;0.00;0.00;;;;;18.93;67.95;100522.19;5088685;28;8880;-61
2022/10/27 09:33:44;;;;;;;;;0.00;0.00;;;;;19.02;68.03;100523.91;5089083;28;8837;-62
2022/10/27 09:36:12;;;;;;;;;0.00;0.00;;;;;19.09;67.72;100519.56;5089257;28;9215;-61
2022/10/27 09:38:40;;;;;;;;;0.00;0.00;;;;;19.18;67.49;100515.88;5090289;28;8845;-61
2022/10/27 09:41:08;;;;;;;;;0.60;0.60;;;;;19.26;67.14;100518.63;5089744;28;8834;-63
2022/10/27 09:43:36;;;;;;;;;1.00;1.00;;;;;19.38;67.06;100517.34;5089607;28;8898;-62
2022/10/27 09:46:04;;;;;;;;;1.00;1.00;;;;;19.51;66.46;100515.00;5091003;28;8830;-63
2022/10/27 09:48:32;;;;;;;;;0.00;0.00;;;;;19.69;66.29;100514.88;5090486;28;8838;-61
2022/10/27 09:51:00;;;;;;;;;1.00;0.00;;;;;19.98;65.67;100515.25;5089838;28;8849;-63
2022/10/27 09:53:28;;;;;;;;;0.00;0.00;;;;;20.44;64.09;100509.19;5089516;28;8826;-62
2022/10/27 09:55:56;;;;;;;;;1.00;1.00;;;;;21.10;62.93;100503.28;5089268;28;8864;-61
2022/10/27 09:58:25;;;;;;;;;1.00;0.80;;;;;21.96;61.06;100504.03;5088546;28;8842;-62
2022/10/27 10:00:52;;;;;;;;;0.00;0.00;;;;;22.71;60.01;100494.88;5088774;28;9650;-63
2022/10/27 10:03:20;;;;;;;;;0.60;0.20;;;;;23.29;58.16;100494.91;5087355;28;8846;-61
2022/10/27 10:05:48;;;;;;;;;0.00;0.00;;;;;23.87;57.26;100489.34;5088167;28;9644;-62
2022/10/27 10:08:16;;;;;;;;;0.00;0.00;;;;;24.54;55.73;100490.56;5089129;28;8929;-62
2022/10/27 10:10:45;;;;;;;;;1.00;1.00;;;;;25.07;54.50;100482.56;5088316;28;8857;-62
2022/10/27 10:13:13;;;;;;;;;0.80;0.80;;;;;25.42;54.82;100483.41;5088578;28;8931;-63
2022/10/27 10:15:41;;;;;;;;;1.00;1.00;;;;;25.46;54.02;100488.25;5089643;28;8952;-61
2022/10/27 10:18:09;;;;;;;;;1.00;1.00;;;;;25.41;53.90;100479.00;5089449;28;8846;-63
2022/10/27 10:20:38;;;;;;;;;1.00;1.00;;;;;25.25;54.83;100484.81;5090704;28;8842;-61
2022/10/27 10:23:06;;;;;;;;;1.00;0.80;;;;;25.04;55.32;100487.59;5090685;28;8833;-62
2022/10/27 10:25:34;;;;;;;;;0.40;0.40;;;;;24.69;56.13;100484.03;5090433;28;8833;-61
2022/10/27 10:28:02;;;;;;;;;1.00;1.00;;;;;24.38;55.96;100477.25;5090491;28;8850;-63
2022/10/27 10:30:30;;;;;;;;;0.80;0.20;;;;;24.18;56.57;100478.94;5090686;28;8861;-61
2022/10/27 10:32:58;;;;;;;;;1.00;1.00;;;;;24.27;56.60;100478.63;5090603;28;8848;-62
2022/10/27 10:35:27;;;;;;;;;0.00;0.00;;;;;24.34;55.99;100478.69;5089985;28;8918;-62
2022/10/27 10:37:55;;;;;;;;;1.00;1.00;;;;;24.39;56.12;100468.03;5090134;28;8838;-62
2022/10/27 10:40:26;;;;;;;;;1.00;1.00;;;;;24.35;56.26;100462.13;5089306;28;8818;-61
2022/10/27 10:42:54;;;;;;;;;1.00;1.00;;;;;24.08;56.38;100459.41;5089064;28;9511;-62
2022/10/27 10:45:22;;;;;;;;;1.40;1.40;;;;;23.70;57.10;100458.81;5087478;28;8841;-63
2022/10/27 10:47:50;;;;;;;;;2.00;2.00;;;;;23.33;57.98;100464.44;5089269;28;9511;-60
2022/10/27 10:50:19;;;;;;;;;3.60;3.60;;;;;23.11;58.30;100459.09;5089518;28;8876;-61
2022/10/27 10:52:47;;;;;;;;;1.00;1.00;;;;;22.96;58.17;100452.81;5088189;28;8842;-61
2022/10/27 10:55:15;;;;;;;;;1.60;1.00;;;;;22.85;58.10;100439.72;5091264;28;8834;-61
2022/10/27 10:57:44;;;;;;;;;1.00;1.00;;;;;22.77;58.41;100434.41;5092392;28;8986;-61
2022/10/27 11:00:13;;;;;;;;;1.20;1.20;;;;;22.72;58.87;100425.97;5092805;28;8826;-61
2022/10/27 11:02:41;;;;;;;;;1.20;1.00;;;;;;;;5090464;28;8867;-62
2022/10/27 11:05:09;;;;;;;;;2.00;2.00;;;;;22.61;59.06;100429.16;5089640;28;8850;-62
2022/10/27 11:07:37;;;;;;;;;1.40;1.00;;;;;22.70;58.71;100423.41;5088526;28;8960;-61
2022/10/27 11:10:05;;;;;;;;;1.40;1.40;;;;;22.72;59.28;100410.53;5090360;28;8960;-61
2022/10/27 11:12:36;;;;;;;;;1.40;1.00;;;;;22.76;58.30;100413.69;5090844;28;8875;-61
2022/10/27 11:15:04;;;;;;;;;2.00;1.00;;;;;22.72;58.46;100413.22;5091278;28;9562;-61
2022/10/27 11:17:32;;;;;;;;;0.00;0.00;;;;;22.68;58.79;100419.22;5090729;28;8877;-61
2022/10/27 11:20:00;;;;;;;;;2.40;2.00;;;;;22.64;58.26;100412.47;5091546;28;9384;-61
2022/10/27 11:22:29;;;;;;;;;2.80;1.80;;;;;22.63;58.62;100410.78;5091789;28;8837;-62
2022/10/27 11:24:58;;;;;;;;;2.00;2.00;;;;;22.63;58.52;100405.38;5091411;28;8948;-61
2022/10/27 11:27:26;;;;;;;;;1.00;1.00;;;;;22.60;58.55;100405.72;5092071;28;8856;-61
2022/10/27 11:29:54;;;;;;;;;1.80;1.80;;;;;22.57;58.20;100390.66;5092093;28;8830;-61
2022/10/27 11:32:22;;;;;;;;;2.00;2.00;;;;;22.56;58.43;100390.84;5092793;28;8846;-62
2022/10/27 11:34:50;;;;;;;;;1.00;1.00;;;;;22.55;58.49;100383.75;5093191;28;8833;-61
2022/10/27 11:37:18;;;;;;;;;1.00;1.00;;;;;22.57;58.47;100379.81;5092419;28;9304;-61